Time;durP1;ratioP1;P1;durP2;ratioP2;P2;SDS_P1;SDS_P2;PMS_P1;PMS_P2;Temp;Humidity;BMP_temperature;BMP_pressure;BME280_temperature;BME280_humidity;BME280_pressure;Samples;Min_cycle;Max_cycle;Signal;HPM_P1;HPM_P2
2021/03/21 00:02:17;;;;;;;6.00;4.43;;;;;;;2.82;100.00;94726.94;5036280;28;20492;-75
2021/03/21 00:04:43;;;;;;;4.87;4.27;;;;;;;3.01;100.00;94731.91;5036743;28;20426;-75
2021/03/21 00:10:35;;;;;;;5.77;5.17;;;;;;;3.01;100.00;94734.50;5036558;28;20457;-75
2021/03/21 00:13:03;;;;;;;4.90;4.40;;;;;;;3.10;100.00;94727.00;5036762;28;20430;-75
2021/03/21 00:15:30;;;;;;;5.70;4.70;;;;;;;3.02;100.00;94720.59;5035827;28;20580;-75
2021/03/21 00:17:57;;;;;;;4.50;4.10;;;;;;;3.24;100.00;94726.22;5036733;28;20430;-75
2021/03/21 00:20:28;;;;;;;3.60;3.30;;;;;;;3.27;100.00;94717.41;5036689;28;20457;-75
2021/03/21 00:22:55;;;;;;;5.13;3.57;;;;;;;3.03;100.00;94730.88;5036181;28;20450;-75
2021/03/21 00:25:24;;;;;;;6.23;4.27;;;;;;;3.25;100.00;94730.47;5017591;28;20773;-75
2021/03/21 00:27:51;;;;;;;4.37;3.97;;;;;;;3.33;100.00;94728.25;5035835;28;20450;-75
2021/03/21 00:30:21;;;;;;;3.77;3.17;;;;;;;3.30;100.00;94728.44;5036304;28;20785;-75
2021/03/21 00:32:48;;;;;;;4.57;4.13;;;;;;;3.06;100.00;94717.75;5036168;28;20434;-75
2021/03/21 00:35:14;;;;;;;3.70;3.40;;;;;;;3.27;100.00;94717.41;5036368;28;20481;-75
2021/03/21 00:37:42;;;;;;;3.57;3.20;;;;;;;3.03;100.00;94707.56;5036374;28;20478;-75
2021/03/21 00:40:11;;;;;;;3.90;2.80;;;;;;;2.95;100.00;94681.25;5035594;28;20758;-75
2021/03/21 00:42:38;;;;;;;8.17;4.10;;;;;;;3.09;100.00;94694.22;5036477;28;20445;-75
2021/03/21 00:45:06;;;;;;;3.17;2.90;;;;;;;2.99;100.00;94684.50;5035344;28;20446;-75
2021/03/21 00:47:34;;;;;;;3.30;2.83;;;;;;;3.02;100.00;94686.91;5035902;28;20441;-75
2021/03/21 00:50:00;;;;;;;2.70;2.60;;;;;;;2.94;100.00;94678.75;5035650;28;20431;-75
2021/03/21 00:52:27;;;;;;;2.60;2.40;;;;;;;2.78;100.00;94697.78;5035807;28;20502;-75
2021/03/21 00:54:53;;;;;;;2.43;2.13;;;;;;;2.85;100.00;94702.59;5016417;28;20500;-75
2021/03/21 00:57:19;;;;;;;2.23;1.83;;;;;;;2.83;100.00;94692.31;5034671;28;20540;-75
2021/03/21 00:59:46;;;;;;;2.00;1.60;;;;;;;2.92;100.00;94706.53;5034372;28;20446;-75
2021/03/21 01:02:12;;;;;;;2.63;2.40;;;;;;;2.86;100.00;94701.66;5016363;28;20450;-75
2021/03/21 01:04:39;;;;;;;2.67;2.13;;;;;;;2.90;100.00;94698.84;5034750;28;20445;-76
2021/03/21 01:07:06;;;;;;;2.90;2.00;;;;;;;2.92;100.00;94715.13;5034598;28;20956;-75
2021/03/21 01:09:32;;;;;;;2.90;2.17;;;;;;;2.84;100.00;94677.59;5016756;28;20435;-75
2021/03/21 01:11:58;;;;;;;1.90;1.80;;;;;;;2.85;100.00;94698.25;5035181;28;20947;-75
2021/03/21 01:14:24;;;;;;;2.13;1.60;;;;;;;2.86;100.00;94705.09;5034801;28;20439;-75
2021/03/21 01:16:52;;;;;;;2.50;2.30;;;;;;;2.75;100.00;94685.00;5034413;28;20489;-75
2021/03/21 01:19:21;;;;;;;2.40;2.23;;;;;;;2.82;100.00;94693.25;5035171;28;20466;-75
2021/03/21 01:21:49;;;;;;;2.07;1.97;;;;;;;2.89;100.00;94685.94;5035311;28;20517;-75
2021/03/21 01:24:18;;;;;;;1.80;1.70;;;;;;;2.81;100.00;94663.06;5035108;28;20922;-75
2021/03/21 01:26:45;;;;;;;2.63;2.43;;;;;;;2.85;100.00;94661.97;5035012;28;20761;-75
2021/03/21 01:29:12;;;;;;;2.30;2.10;;;;;;;2.63;100.00;94659.81;5034570;28;20438;-75
2021/03/21 01:31:38;;;;;;;4.37;2.60;;;;;;;2.74;100.00;94677.31;5035194;28;20434;-74
2021/03/21 01:34:05;;;;;;;3.27;2.53;;;;;;;2.84;100.00;94677.59;5035119;28;20446;-75
2021/03/21 01:36:34;;;;;;;2.53;2.33;;;;;;;2.80;100.00;94695.09;4999672;28;20496;-75
2021/03/21 01:39:05;;;;;;;2.77;2.53;;;;;;;2.86;100.00;94717.22;5034761;28;20454;-75
2021/03/21 01:41:34;;;;;;;7.57;4.77;;;;;;;2.82;100.00;94708.78;5034820;28;20450;-75
2021/03/21 01:44:00;;;;;;;7.70;3.93;;;;;;;2.87;100.00;94714.53;5034471;28;20445;-75
2021/03/21 01:46:40;;;;;;;4.93;3.70;;;;;;;2.93;100.00;94687.47;5034332;28;20446;-75
2021/03/21 01:49:14;;;;;;;3.10;2.80;;;;;;;2.91;100.00;94682.38;5034330;28;21040;-74
2021/03/21 01:51:41;;;;;;;3.80;2.80;;;;;;;2.72;100.00;94694.72;5034734;28;20450;-75
2021/03/21 01:54:13;;;;;;;3.10;2.80;;;;;;;2.83;100.00;94676.78;5034468;28;20450;-75
2021/03/21 01:56:40;;;;;;;2.77;2.57;;;;;;;2.71;100.00;94667.97;5034661;28;20485;-75
2021/03/21 01:59:09;;;;;;;3.27;2.60;;;;;;;2.31;100.00;94658.19;5033946;28;20434;-75
2021/03/21 02:01:36;;;;;;;2.50;2.30;;;;;;;2.43;100.00;94648.00;5033798;28;20441;-75
2021/03/21 02:04:03;;;;;;;2.47;2.27;;;;;;;2.45;100.00;94651.31;5034374;28;20445;-75
2021/03/21 02:06:59;;;;;;;1.80;1.70;;;;;;;2.36;100.00;94648.44;5034414;28;20485;-75
2021/03/21 02:09:32;;;;;;;1.60;1.50;;;;;;;2.29;100.00;94647.94;4960118;28;20463;-75
2021/03/21 02:12:18;;;;;;;2.43;1.90;;;;;;;2.43;100.00;94650.59;4992665;28;20440;-75
2021/03/21 02:14:53;;;;;;;1.63;1.40;;;;;;;2.24;100.00;94654.28;4992706;28;20758;-75
2021/03/21 02:17:26;;;;;;;2.13;1.60;;;;;;;2.28;100.00;94666.97;4992400;28;20942;-75
2021/03/21 02:20:34;;;;;;;2.37;1.60;;;;;;;2.27;100.00;94667.88;4992410;28;20440;-75
2021/03/21 02:23:04;;;;;;;1.93;1.70;;;;;;;2.27;100.00;94664.47;4992346;28;20542;-75
2021/03/21 02:25:58;;;;;;;2.43;2.00;;;;;;;2.35;100.00;94650.19;4992279;28;20448;-75
2021/03/21 02:28:35;;;;;;;1.67;1.57;;;;;;;2.20;100.00;94673.50;4992090;28;20448;-75
2021/03/21 02:31:06;;;;;;;1.60;1.50;;;;;;;2.23;100.00;94663.81;4991927;28;20447;-75
2021/03/21 02:33:36;;;;;;;1.70;1.60;;;;;;;2.28;100.00;94658.38;4992454;28;20455;-75
2021/03/21 02:36:11;;;;;;;1.30;1.20;;;;;;;2.25;100.00;94667.16;4991834;28;20919;-75
2021/03/21 02:38:44;;;;;;;1.50;1.40;;;;;;;2.26;100.00;94665.38;4991715;28;20447;-75
2021/03/21 02:41:16;;;;;;;1.33;1.23;;;;;;;2.31;100.00;94671.13;4991794;28;20483;-75
2021/03/21 02:43:47;;;;;;;1.30;1.20;;;;;;;2.17;100.00;94682.28;4992051;28;20983;-75
2021/03/21 02:46:21;;;;;;;1.97;1.87;;;;;;;2.33;100.00;94671.91;5013554;28;20446;-75
2021/03/21 02:48:53;;;;;;;1.30;1.20;;;;;;;2.40;100.00;94684.41;5033593;28;20418;-75
2021/03/21 02:51:24;;;;;;;1.40;1.30;;;;;;;2.52;100.00;94671.69;5033318;28;21015;-75
2021/03/21 02:53:56;;;;;;;1.40;1.30;;;;;;;2.35;100.00;94681.25;5015481;28;20450;-75
2021/03/21 02:56:28;;;;;;;1.40;1.30;;;;;;;2.35;100.00;94681.25;5032951;28;20470;-75
2021/03/21 02:59:00;;;;;;;1.53;1.43;;;;;;;2.40;100.00;94668.88;5033411;28;20838;-75
2021/03/21 03:01:33;;;;;;;1.40;1.30;;;;;;;2.27;100.00;94665.31;5033240;28;20927;-75
2021/03/21 03:04:03;;;;;;;1.50;1.40;;;;;;;2.24;100.00;94662.88;5033587;28;20465;-75
2021/03/21 03:06:34;;;;;;;1.57;1.47;;;;;;;2.24;100.00;94662.88;5033333;28;20450;-75
2021/03/21 03:09:06;;;;;;;1.50;1.40;;;;;;;2.24;100.00;94664.66;5033717;28;20450;-75
2021/03/21 03:11:40;;;;;;;1.47;1.33;;;;;;;2.20;100.00;94653.63;5033181;28;20430;-75
2021/03/21 03:14:10;;;;;;;1.97;1.87;;;;;;;2.12;100.00;94658.41;5032849;28;20445;-75
2021/03/21 03:16:42;;;;;;;1.97;1.87;;;;;;;2.25;100.00;94654.19;5033179;28;20488;-75
2021/03/21 03:19:22;;;;;;;1.93;1.83;;;;;;;2.21;100.00;94668.25;5033975;28;20506;-75
2021/03/21 03:21:55;;;;;;;1.67;1.58;;;;;;;2.25;100.00;94668.91;5032780;28;20434;-75
2021/03/21 03:24:34;;;;;;;2.50;2.30;;;;;;;2.24;100.00;94652.53;5034160;28;20585;-75
2021/03/21 03:27:07;;;;;;;1.50;1.40;;;;;;;2.22;100.00;94656.97;5033399;28;20426;-75
2021/03/21 03:32:56;;;;;;;2.33;2.13;;;;;;;2.07;100.00;94650.06;5032979;28;20195;-75
2021/03/21 03:35:24;;;;;;;2.10;1.77;;;;;;;2.03;100.00;94648.56;5033215;28;20212;-75
2021/03/21 03:37:51;;;;;;;1.50;1.40;;;;;;;2.03;100.00;94648.56;5032950;28;20539;-75
2021/03/21 03:40:19;;;;;;;1.80;1.70;;;;;;;2.06;100.00;94656.16;5033274;28;20439;-75
2021/03/21 03:42:54;;;;;;;2.10;1.90;;;;;;;1.96;100.00;94658.41;5033544;28;20492;-75
2021/03/21 03:45:26;;;;;;;2.25;1.70;;;;;;;2.09;100.00;94663.75;5032849;28;20929;-75
2021/03/21 03:48:06;;;;;;;2.05;1.92;;;;;;;2.03;100.00;94664.94;5033031;28;20298;-75
2021/03/21 03:50:46;;;;;;;2.00;1.90;;;;;;;2.16;100.00;94658.16;5033464;28;20592;-75
2021/03/21 03:53:22;;;;;;;1.90;1.80;;;;;;;2.01;100.00;94665.91;5036632;28;20466;-75
2021/03/21 03:55:55;;;;;;;2.70;2.50;;;;;;;2.05;100.00;94672.63;5036654;28;20469;-75
2021/03/21 03:58:25;;;;;;;2.10;2.00;;;;;;;1.99;100.00;94678.09;5036254;28;20899;-75
2021/03/21 04:01:00;;;;;;;2.07;1.97;;;;;;;2.13;100.00;94668.69;5036703;28;20457;-75
2021/03/21 04:03:37;;;;;;;2.03;1.93;;;;;;;2.03;100.00;94669.28;5036277;28;20482;-76
2021/03/21 04:06:11;;;;;;;1.90;1.70;;;;;;;1.96;100.00;94667.94;5036828;28;20434;-75
2021/03/21 04:08:46;;;;;;;2.33;2.13;;;;;;;2.12;100.00;94667.00;5035755;28;20203;-76
2021/03/21 04:11:16;;;;;;;2.00;1.90;;;;;;;1.97;100.00;94664.41;5018270;28;20624;-75
2021/03/21 04:13:45;;;;;;;3.30;2.70;;;;;;;2.12;100.00;94669.59;5036171;28;20703;-75
2021/03/21 04:16:21;;;;;;;2.33;2.17;;;;;;;2.03;100.00;94657.19;5036171;28;20486;-75
2021/03/21 04:18:53;;;;;;;3.63;3.33;;;;;;;1.98;100.00;94660.91;5036252;28;20441;-75
2021/03/21 04:21:25;;;;;;;2.03;1.93;;;;;;;2.07;100.00;94656.09;5035778;28;20426;-75
2021/03/21 04:23:57;;;;;;;2.83;2.60;;;;;;;2.00;100.00;94669.44;5036266;28;20438;-75
2021/03/21 04:29:51;;;;;;;2.17;1.98;;;;;;;2.02;100.00;94685.69;5034389;28;20438;-75
2021/03/21 04:32:25;;;;;;;2.80;2.60;;;;;;;2.16;100.00;94670.25;5035948;28;20196;-75
2021/03/21 04:34:57;;;;;;;3.33;3.03;;;;;;;2.10;100.00;94671.44;5036179;28;20953;-75
2021/03/21 04:37:25;;;;;;;2.67;2.50;;;;;;;2.13;100.00;94670.44;5035868;28;20497;-75
2021/03/21 04:39:54;;;;;;;4.53;4.13;;;;;;;2.10;100.00;94674.03;5035713;28;20438;-75
2021/03/21 04:42:24;;;;;;;92.77;36.67;;;;;;;2.07;100.00;94675.94;5035382;28;20449;-75
2021/03/21 04:44:54;;;;;;;3.15;2.85;;;;;;;2.08;100.00;94672.44;5035765;28;20537;-75
2021/03/21 04:47:26;;;;;;;3.25;2.95;;;;;;;2.00;100.00;94675.44;5017565;28;20571;-75
2021/03/21 04:49:55;;;;;;;3.80;3.50;;;;;;;1.94;100.00;94669.75;5035473;28;20210;-75
2021/03/21 04:52:35;;;;;;;2.70;2.50;;;;;;;1.99;100.00;94681.53;5035803;28;20199;-74
2021/03/21 04:55:03;;;;;;;3.17;2.87;;;;;;;1.83;100.00;94675.53;5035302;28;20636;-75
2021/03/21 04:57:36;;;;;;;3.70;3.40;;;;;;;1.80;100.00;94673.13;5035453;28;20985;-75
2021/03/21 05:00:08;;;;;;;3.38;3.08;;;;;;;1.84;100.00;94666.84;5035753;28;20207;-75
2021/03/21 05:02:37;;;;;;;2.83;2.63;;;;;;;1.91;100.00;94664.75;5033853;28;20238;-74
2021/03/21 05:05:09;;;;;;;2.57;2.40;;;;;;;1.89;100.00;94672.59;5035307;28;20207;-75
2021/03/21 05:07:46;;;;;;;2.95;2.65;;;;;;;1.84;100.00;94680.63;5035034;28;20443;-75
2021/03/21 05:10:20;;;;;;;4.07;3.20;;;;;;;1.89;100.00;94671.78;5035118;28;20254;-75
2021/03/21 05:12:51;;;;;;;3.28;2.97;;;;;;;1.91;100.00;94664.75;5035128;28;20195;-77
2021/03/21 05:15:23;;;;;;;2.63;2.42;;;;;;;1.91;100.00;94670.78;5035071;28;20297;-77
2021/03/21 05:28:03;;;;;;;3.70;3.40;;;;;;;1.91;100.00;94639.72;5034486;28;20169;-76
2021/03/21 05:30:32;;;;;;;4.37;3.63;;;;;;;2.01;100.00;94640.03;5034329;28;20442;-76
2021/03/21 05:32:59;;;;;;;3.40;3.10;;;;;;;2.09;100.00;94648.22;5034496;28;20446;-76
2021/03/21 05:35:27;;;;;;;3.43;3.17;;;;;;;2.14;100.00;94646.22;5018592;28;20450;-75
2021/03/21 05:38:05;;;;;;;3.67;3.47;;;;;;;2.16;100.00;94649.56;5054235;28;20480;-76
2021/03/21 05:41:17;;;;;;;8.53;7.07;;;;;;;2.33;100.00;94651.19;5035872;28;20437;-77
2021/03/21 05:44:21;;;;;;;3.60;3.30;;;;;;;2.43;100.00;94660.09;5055143;28;20792;-77
2021/03/21 05:47:09;;;;;;;3.30;3.10;;;;;;;2.48;100.00;94660.69;5054641;28;20502;-76
2021/03/21 05:49:57;;;;;;;3.57;3.27;;;;;;;2.55;100.00;94659.41;5054314;28;20199;-75
2021/03/21 05:53:02;;;;;;;3.87;3.57;;;;;;;2.54;100.00;94662.06;5053890;28;20438;-76
2021/03/21 05:55:54;;;;;;;3.93;3.63;;;;;;;2.49;100.00;94663.19;5035670;28;20436;-75
2021/03/21 05:58:47;;;;;;;3.50;3.23;;;;;;;2.35;100.00;94667.47;5053810;28;20450;-75
2021/03/21 06:01:44;;;;;;;5.03;4.40;;;;;;;2.53;100.00;94673.34;5053690;28;20437;-76
2021/03/21 06:04:48;;;;;;;8.87;7.20;;;;;;;2.59;100.00;94679.00;5054034;28;20457;-75
2021/03/21 06:07:42;;;;;;;4.70;4.30;;;;;;;2.62;100.00;94672.84;5054285;28;20452;-75
2021/03/21 06:10:40;;;;;;;4.30;3.90;;;;;;;2.52;100.00;94664.75;4992391;28;20447;-76
2021/03/21 06:13:22;;;;;;;4.50;4.10;;;;;;;2.61;100.00;94655.66;4977850;28;20802;-76
2021/03/21 06:19:44;;;;;;;3.73;3.43;;;;;;;2.65;100.00;94662.31;4991824;28;20439;-75
2021/03/21 06:22:31;;;;;;;4.90;4.50;;;;;;;2.84;100.00;94673.25;4896830;29;20824;-76
2021/03/21 06:25:31;;;;;;;5.73;4.47;;;;;;;2.86;100.00;94671.41;4867895;29;20504;-76
2021/03/21 06:28:33;;;;;;;4.60;4.20;;;;;;;2.97;100.00;94687.19;4858916;29;20462;-76
2021/03/21 06:31:33;;;;;;;10.07;8.47;;;;;;;3.03;100.00;94704.97;4768512;30;20465;-77
2021/03/21 06:34:11;;;;;;;14.03;11.77;;;;;;;3.05;100.00;94703.13;4715509;30;20952;-76
2021/03/21 06:36:41;;;;;;;21.70;15.43;;;;;;;2.98;100.00;94706.16;4726069;30;20546;-76
2021/03/21 06:39:44;;;;;;;25.10;18.57;;;;;;;3.08;100.00;94702.94;4733158;30;20489;-78
2021/03/21 06:42:49;;;;;;;37.43;26.83;;;;;;;3.15;100.00;94708.56;4732360;30;21098;-77
2021/03/21 06:45:51;;;;;;;16.13;11.43;;;;;;;3.22;100.00;94704.72;4730022;30;21947;-77
2021/03/21 06:48:46;;;;;;;16.10;12.50;;;;;;;3.30;100.00;94696.47;4732927;30;20464;-77
2021/03/21 06:57:51;;;;;;;23.90;15.43;;;;;;;3.43;100.00;94698.22;4668878;30;20502;-78
2021/03/21 07:00:54;;;;;;;12.10;10.57;;;;;;;3.51;100.00;94684.81;4749916;30;20985;-77
2021/03/21 07:03:57;;;;;;;13.03;9.17;;;;;;;3.62;100.00;94687.59;4750117;30;20474;-79
2021/03/21 07:07:03;;;;;;;7.70;6.90;;;;;;;3.67;100.00;94695.09;4804109;29;20898;-78
2021/03/21 07:10:00;;;;;;;21.57;7.47;;;;;;;3.77;100.00;94701.41;4858630;29;21399;-78
2021/03/21 07:16:26;;;;;;;8.47;6.10;;;;;;;3.65;100.00;94689.16;4895228;29;20893;-77
2021/03/21 07:19:32;;;;;;;7.30;5.43;;;;;;;3.62;100.00;94690.19;4895685;29;20491;-76
2021/03/21 07:22:28;;;;;;;6.50;5.17;;;;;;;3.57;100.00;94684.44;4877069;29;20460;-78
2021/03/21 07:28:40;;;;;;;4.70;4.07;;;;;;;3.47;100.00;94692.84;4888673;29;20488;-77
2021/03/21 07:31:19;;;;;;;10.37;9.37;;;;;;;3.38;100.00;94694.25;4931851;29;20489;-78
2021/03/21 07:34:26;;;;;;;12.57;7.33;;;;;;;3.47;100.00;94687.69;4956539;29;20888;-78
2021/03/21 07:37:05;;;;;;;4.30;3.90;;;;;;;3.37;100.00;94684.81;4956329;29;20493;-78
2021/03/21 07:39:55;;;;;;;11.90;8.03;;;;;;;3.32;100.00;94682.50;4956347;29;20938;-78
2021/03/21 07:42:40;;;;;;;13.90;9.20;;;;;;;3.47;100.00;94682.50;4956421;29;20445;-78
2021/03/21 07:45:43;;;;;;;18.50;8.23;;;;;;;3.55;100.00;94681.13;4957848;28;20446;-77
2021/03/21 07:48:34;;;;;;;15.60;9.67;;;;;;;3.56;100.00;94676.75;4975608;28;20806;-78
2021/03/21 07:51:08;;;;;;;6.53;5.80;;;;;;;3.42;100.00;94682.78;4899266;29;20482;-77
2021/03/21 07:53:39;;;;;;;30.30;20.97;;;;;;;3.24;100.00;94683.88;4899044;29;20503;-77
2021/03/21 07:56:15;;;;;;;16.33;12.50;;;;;;;3.37;100.00;94679.63;4911413;29;20493;-78
2021/03/21 07:58:47;;;;;;;12.03;9.70;;;;;;;3.41;100.00;94674.16;4933252;28;20444;-77
2021/03/21 08:01:17;;;;;;;9.20;7.23;;;;;;;3.57;100.00;94679.25;4975476;28;20447;-78
2021/03/21 08:03:52;;;;;;;10.03;7.97;;;;;;;3.46;100.00;94675.63;4975175;28;20483;-78
2021/03/21 08:06:26;;;;;;;10.10;5.87;;;;;;;3.27;100.00;94678.53;4989311;28;20455;-77
2021/03/21 08:08:59;;;;;;;11.90;8.90;;;;;;;3.51;100.00;94668.44;4994596;28;20441;-77
2021/03/21 08:11:30;;;;;;;7.87;5.80;;;;;;;3.49;100.00;94678.06;4995450;28;20534;-78
2021/03/21 08:14:02;;;;;;;5.33;4.83;;;;;;;3.53;100.00;94675.19;4994379;28;20440;-78
2021/03/21 08:16:38;;;;;;;28.73;19.57;;;;;;;3.72;100.00;94667.94;4993190;28;20491;-78
2021/03/21 08:19:05;;;;;;;8.53;6.80;;;;;;;3.80;100.00;94664.06;4993644;28;20447;-78
2021/03/21 08:21:33;;;;;;;21.37;19.03;;;;;;;3.68;100.00;94661.25;4993655;28;20452;-77
2021/03/21 08:24:09;;;;;;;35.80;26.97;;;;;;;3.78;100.00;94645.16;4993815;28;20444;-77
2021/03/21 08:26:38;;;;;;;27.63;20.73;;;;;;;3.69;100.00;94656.91;4994212;28;20535;-77
2021/03/21 08:29:10;;;;;;;20.70;18.43;;;;;;;3.47;100.00;94647.03;5049472;28;20827;-76
2021/03/21 08:31:40;;;;;;;17.13;13.13;;;;;;;3.25;100.00;94641.47;5055450;28;20458;-77
2021/03/21 08:37:40;;;;;;;15.40;12.97;;;;;;;3.31;100.00;94634.16;4961216;28;20559;-77
2021/03/21 08:40:18;;;;;;;61.77;45.07;;;;;;;3.49;100.00;94642.59;4974656;28;20441;-78
2021/03/21 08:42:47;;;;;;;16.43;14.00;;;;;;;3.43;100.00;94629.97;4991431;28;20447;-78
2021/03/21 08:45:36;;;;;;;9.47;6.67;;;;;;;3.44;100.00;94626.44;4993855;28;20561;-78
2021/03/21 08:48:32;;;;;;;11.53;8.03;;;;;;;3.58;100.00;94626.44;4993928;28;21073;-77
2021/03/21 08:51:20;;;;;;;16.00;9.10;;;;;;;3.74;100.00;94627.16;4993650;28;20853;-78
2021/03/21 08:53:56;;;;;;;16.60;10.40;;;;;;;3.68;100.00;94624.94;4993687;28;20448;-78
2021/03/21 08:56:24;;;;;;;10.10;7.93;;;;;;;3.69;100.00;94631.78;4981507;28;20483;-79
2021/03/21 08:58:52;;;;;;;11.00;9.73;;;;;;;3.61;100.00;94626.25;4990349;28;20460;-78
2021/03/21 09:01:21;;;;;;;9.27;7.80;;;;;;;3.93;100.00;94626.00;4993913;28;20547;-78
2021/03/21 09:03:48;;;;;;;25.77;21.03;;;;;;;4.16;100.00;94621.94;4993589;28;20494;-78
2021/03/21 09:06:31;;;;;;;16.23;13.57;;;;;;;4.32;99.73;94620.84;4992636;28;20899;-78
2021/03/21 09:09:24;;;;;;;14.70;11.43;;;;;;;4.42;98.07;94610.72;4993434;28;20909;-78
2021/03/21 09:11:52;;;;;;;13.80;10.43;;;;;;;4.44;96.51;94613.22;4993556;28;20478;-77
2021/03/21 09:14:28;;;;;;;7.57;5.03;;;;;;;4.48;94.93;94612.06;5037243;28;20812;-77
2021/03/21 09:17:00;;;;;;;13.67;9.53;;;;;;;4.59;94.57;94607.00;5046689;28;20516;-77
2021/03/21 09:19:30;;;;;;;6.43;5.80;;;;;;;4.76;94.44;94601.53;5035715;28;20426;-77
2021/03/21 09:25:25;;;;;;;6.17;5.60;;;;;;;5.17;92.99;94597.88;5034555;28;20448;-77
2021/03/21 09:27:52;;;;;;;20.73;11.50;;;;;;;5.32;91.79;94596.00;5049386;28;20453;-78
2021/03/21 09:30:21;;;;;;;24.90;10.77;;;;;;;5.50;91.61;94592.97;5055052;28;20437;-76
2021/03/21 09:32:51;;;;;;;15.10;8.33;;;;;;;5.58;90.70;94587.22;5055130;28;20483;-76
2021/03/21 09:35:34;;;;;;;15.57;9.57;;;;;;;5.76;89.58;94585.09;5054843;28;20523;-76
2021/03/21 09:38:07;;;;;;;19.57;13.10;;;;;;;5.88;88.92;94597.25;5035158;28;20500;-77
2021/03/21 09:40:38;;;;;;;12.17;8.70;;;;;;;6.01;88.74;94590.25;5035206;28;20803;-77
2021/03/21 09:43:09;;;;;;;11.30;7.30;;;;;;;6.09;86.26;94592.31;5034808;28;20438;-76
2021/03/21 09:45:35;;;;;;;11.03;7.73;;;;;;;6.12;86.01;94598.13;5034984;28;20474;-77
2021/03/21 09:48:03;;;;;;;9.97;6.83;;;;;;;6.16;85.42;94606.56;5034185;28;20439;-77
2021/03/21 09:50:45;;;;;;;13.80;8.30;;;;;;;6.10;84.80;94609.59;5034351;28;20449;-78
2021/03/21 09:53:53;;;;;;;21.43;8.60;;;;;;;6.08;83.73;94606.28;5034612;28;20792;-78
2021/03/21 09:56:36;;;;;;;10.57;6.50;;;;;;;5.93;83.76;94609.97;4992396;28;20487;-78
2021/03/21 09:59:11;;;;;;;6.90;6.20;;;;;;;5.84;84.22;94611.44;4992700;28;21292;-77
2021/03/21 10:01:44;;;;;;;5.37;4.40;;;;;;;5.80;84.84;94603.00;4992610;28;20466;-76
2021/03/21 10:04:25;;;;;;;23.43;17.73;;;;;;;5.33;85.96;94587.28;4993124;28;20841;-76
2021/03/21 10:06:56;;;;;;;11.80;9.83;;;;;;;5.15;85.28;94574.59;4992864;28;21006;-76
2021/03/21 10:09:26;;;;;;;18.20;14.27;;;;;;;5.20;86.30;94588.13;4992661;28;20443;-77
2021/03/21 10:11:59;;;;;;;6.03;5.20;;;;;;;5.30;87.92;94583.13;4944109;28;20468;-76
2021/03/21 10:15:06;;;;;;;8.60;5.63;;;;;;;5.28;86.81;94585.81;4992515;28;20516;-78
2021/03/21 10:17:53;;;;;;;7.30;5.30;;;;;;;5.16;87.04;94575.41;4934145;29;20493;-76
2021/03/21 10:20:42;;;;;;;6.57;3.70;;;;;;;5.16;87.30;94576.25;4934424;29;20462;-76
2021/03/21 10:23:09;;;;;;;4.40;4.00;;;;;;;5.24;87.91;94570.53;4934318;29;20798;-76
2021/03/21 10:25:56;;;;;;;5.07;3.97;;;;;;;5.32;86.96;94565.63;4902619;29;20877;-77
2021/03/21 10:28:44;;;;;;;10.00;6.70;;;;;;;5.23;87.16;94561.06;4934323;29;20447;-77
2021/03/21 10:31:31;;;;;;;6.80;5.40;;;;;;;5.32;89.13;94568.22;4965669;28;20453;-77
2021/03/21 10:40:46;;;;;;;8.70;6.20;;;;;;;5.52;85.65;94572.88;4991467;28;20463;-76
2021/03/21 10:43:58;;;;;;;17.70;9.70;;;;;;;5.59;85.51;94568.91;4991527;28;20459;-75
2021/03/21 10:46:51;;;;;;;7.30;6.17;;;;;;;5.66;84.86;94568.47;4991882;28;20444;-75
2021/03/21 10:49:50;;;;;;;6.60;4.73;;;;;;;5.66;86.04;94558.88;4991798;28;20452;-77
2021/03/21 10:52:38;;;;;;;4.30;3.03;;;;;;;5.59;85.36;94548.09;5025435;28;20520;-76
2021/03/21 10:55:32;;;;;;;4.50;3.40;;;;;;;5.68;84.97;94545.75;5011428;28;20455;-74
2021/03/21 10:58:28;;;;;;;6.63;5.17;;;;;;;5.81;86.40;94536.97;5030049;28;20581;-75
2021/03/21 11:01:25;;;;;;;26.17;17.63;;;;;;;5.98;85.94;94538.38;5032424;28;20442;-74
2021/03/21 11:04:04;;;;;;;288.57;136.17;;;;;;;6.11;85.05;94544.38;4973510;28;20471;-76
2021/03/21 11:06:34;;;;;;;32.73;21.90;;;;;;;6.09;83.69;94543.66;4976256;28;20449;-76
2021/03/21 11:09:09;;;;;;;8.40;5.73;;;;;;;6.12;82.77;94535.63;4976359;28;20457;-76
2021/03/21 11:11:39;;;;;;;5.93;5.23;;;;;;;6.12;83.89;94535.63;4976361;28;20444;-76
2021/03/21 11:14:14;;;;;;;8.80;4.77;;;;;;;6.17;84.35;94533.50;4976311;28;20452;-76
2021/03/21 11:16:48;;;;;;;7.93;6.27;;;;;;;6.26;83.94;94524.16;4975911;28;20494;-76
2021/03/21 11:19:16;;;;;;;6.57;5.00;;;;;;;6.28;84.13;94519.66;4976010;28;20955;-76
2021/03/21 11:21:43;;;;;;;6.17;5.00;;;;;;;6.01;84.74;94527.72;4976481;28;20453;-76
2021/03/21 11:24:25;;;;;;;4.20;3.73;;;;;;;5.69;86.66;94522.22;4976030;28;20452;-76
2021/03/21 11:26:52;;;;;;;3.70;3.40;;;;;;;5.48;87.51;94511.56;4976081;28;20547;-76
2021/03/21 11:29:31;;;;;;;4.20;3.87;;;;;;;4.89;90.72;94506.16;4975805;28;20452;-76
2021/03/21 11:32:04;;;;;;;3.60;3.30;;;;;;;4.51;91.97;94501.00;4985649;28;20450;-76
2021/03/21 11:34:33;;;;;;;4.27;3.90;;;;;;;4.39;94.34;94494.03;4995509;28;20463;-76
2021/03/21 11:37:05;;;;;;;3.80;3.50;;;;;;;4.24;94.56;94495.03;4995196;28;20496;-76
2021/03/21 11:39:37;;;;;;;3.30;3.00;;;;;;;4.29;94.52;94501.59;4995138;28;20479;-76
2021/03/21 11:42:19;;;;;;;2.90;2.70;;;;;;;4.48;95.69;94479.59;5057163;28;20457;-75
2021/03/21 11:44:48;;;;;;;14.40;3.10;;;;;;;4.49;95.56;94483.84;5056370;28;20484;-76
2021/03/21 11:47:27;;;;;;;3.70;3.40;;;;;;;4.38;96.81;94470.75;5056278;28;20456;-75
2021/03/21 11:49:55;;;;;;;3.00;2.80;;;;;;;4.41;96.23;94470.53;5056676;28;20452;-75
2021/03/21 11:52:22;;;;;;;4.37;3.97;;;;;;;4.20;95.67;94468.44;5056742;28;20451;-75
2021/03/21 11:54:49;;;;;;;5.10;4.67;;;;;;;4.14;96.46;94462.84;5038174;28;20476;-76
2021/03/21 11:57:28;;;;;;;3.40;3.10;;;;;;;3.91;97.62;94459.16;5056830;28;20477;-75
2021/03/21 12:00:02;;;;;;;4.70;3.53;;;;;;;4.04;98.23;94462.59;5056883;28;20489;-76
2021/03/21 12:02:41;;;;;;;3.83;3.43;;;;;;;3.81;97.00;94452.91;5056933;28;20429;-76
2021/03/21 12:05:19;;;;;;;2.73;2.50;;;;;;;3.97;98.21;94459.59;5056576;28;20429;-76
2021/03/21 12:07:45;;;;;;;4.60;3.67;;;;;;;3.99;98.43;94451.69;5055964;28;20814;-76
2021/03/21 12:10:17;;;;;;;4.00;3.70;;;;;;;4.04;98.12;94444.44;5056219;28;20426;-75
2021/03/21 12:12:44;;;;;;;4.50;4.13;;;;;;;3.96;98.39;94434.56;5056302;28;20487;-75
2021/03/21 12:15:32;;;;;;;4.97;4.47;;;;;;;4.06;96.93;94437.41;5056176;28;20941;-76
2021/03/21 12:18:02;;;;;;;5.70;4.33;;;;;;;3.66;96.51;94433.97;5040107;28;20564;-76
2021/03/21 12:20:43;;;;;;;9.77;6.40;;;;;;;3.70;97.96;94423.31;5035822;28;20452;-76
2021/03/21 12:23:31;;;;;;;42.10;15.50;;;;;;;3.92;98.65;94420.13;5035693;28;20909;-76
2021/03/21 12:26:17;;;;;;;19.17;10.43;;;;;;;3.64;96.78;94409.91;5036397;28;20443;-76
2021/03/21 12:28:53;;;;;;;24.10;13.27;;;;;;;3.67;95.55;94407.94;5001453;28;20426;-76
2021/03/21 12:31:24;;;;;;;18.43;10.70;;;;;;;3.60;94.34;94404.09;5035491;28;20438;-76
2021/03/21 12:33:50;;;;;;;13.80;9.40;;;;;;;3.66;96.63;94398.50;5035502;28;20446;-76
2021/03/21 12:36:23;;;;;;;11.77;10.00;;;;;;;3.62;95.72;94384.06;5036067;28;20430;-77
2021/03/21 12:38:53;;;;;;;7.30;6.10;;;;;;;3.49;93.83;94379.78;5036396;28;20474;-76
2021/03/21 12:41:30;;;;;;;15.82;13.82;;;;;;;3.53;95.54;94389.88;5035484;28;20445;-76
2021/03/21 12:44:30;;;;;;;17.97;11.20;;;;;;;3.68;96.52;94386.25;5035642;28;20196;-76
2021/03/21 12:47:01;;;;;;;9.07;6.33;;;;;;;3.71;94.11;94378.25;5035489;28;20757;-78
2021/03/21 12:49:39;;;;;;;17.13;8.13;;;;;;;3.82;94.55;94376.72;5036105;28;20438;-77
2021/03/21 12:52:09;;;;;;;17.73;9.83;;;;;;;4.06;94.90;94359.50;5035431;28;20831;-77
2021/03/21 12:54:36;;;;;;;16.60;7.50;;;;;;;4.36;93.28;94366.97;5046059;28;20454;-76
2021/03/21 12:57:03;;;;;;;12.97;8.87;;;;;;;4.39;90.69;94365.94;5055424;28;20492;-75
2021/03/21 12:59:30;;;;;;;10.63;8.40;;;;;;;4.26;91.05;94361.56;5054825;28;20453;-78
2021/03/21 13:01:57;;;;;;;9.50;6.97;;;;;;;4.39;90.15;94352.94;5054946;28;20434;-78
2021/03/21 13:04:23;;;;;;;8.53;7.73;;;;;;;4.39;88.65;94360.72;5054947;28;20472;-77
2021/03/21 13:06:50;;;;;;;8.90;7.27;;;;;;;4.17;90.28;94357.00;5055097;28;20533;-77